Penticton, Canada
Current Conditions -  °F | °C
As of 8:00 PM on Tuesday 21 Oct 2014 (Local Time) from CYYF Reporting Station
Broken Clouds Broken Clouds  
Wind Chill: 57°   Ceiling: 9500
Heat Index: 57°   Visibility: 15mi
Dew Point: 45°   Wind: 13mph
Humidity: 63%   Direction: 190°S
Pressure: 29.84"   Gusts: NA
Location:  49.5°N, 119.59°W
Report Text: CYYF 220300Z 19011KT 15SM FEW055 BKN095 14/07 A2984 RMK SC1AC4 SLP108 DENSITY ALT 1300FT
Loading
Personal Weather Stations






























Interactive Weather Map
Tropical Storm Tracking
New forecast layout! Learn more

10-Day Weather Forecast

Advertisements
Track Severe Weather on mobile